Terminal Aerodrome Forecast
Issued by NWS Sioux Falls, SD

Home | Current Version | Previous Version | Graphics & Text | Print | Product List | Glossary Off
Versions: 1 2 3 4 5 6 7 8 9 10 11 12 13 14 15 16 17 18 19

000
FTUS43 KFSD 290520
TAFHON
TAF
KHON 290520Z 2906/3006 15006KT 6SM BR SCT200
     FM290900 19006KT 4SM BR SCT200
     FM291500 24007KT P6SM SKC
     FM292300 35011KT P6SM SCT025 BKN200=

USA.gov is the U.S. government's official web portal to all federal, state and local government web resources and services.